Terminal Aerodrome Forecast
Issued by NWS

Home | Current Version | Previous Version | Text Only | Print | Product List | Glossary On
Versions: 1 2 3 4 5 6 7 8 9 10 11 12 13 14 15 16 17 18 19 20 21 22
918
FTUS41 KGYX 301720
TAFLEB
TAF
KLEB 301720Z 3018/3118 VRB03KT P6SM SCT060 SCT250
     FM310000 00000KT P6SM SCT120 BKN250
      TEMPO 3109/3113 1SM BR BKN002
     FM311500 23005KT P6SM SCT120 BKN250=

USA.gov is the U.S. government's official web portal to all federal, state and local government web resources and services.